Disautel, Washington
Current Conditions -  °F | °C
As of 11:53 PM on Saturday 25 Oct 2014 (Local Time) from KOMK Reporting Station
Overcast Overcast  
Wind Chill: 55°   Ceiling: 10000
Heat Index: 55°   Visibility: 10mi
Dew Point: 45°   Wind: 14mph
Humidity: 69%   Direction: 190°S
Pressure: 29.46"   Gusts: 24mph
Location:  48.4274°N, 119.524°W
Report Text: KOMK 260653Z AUTO 19012G21KT 10SM OVC100 13/07 A2946 RMK AO2 RAE01 SLP976 P0000 T01280072
Loading
Personal Weather Stations






























Interactive Weather Map New forecast layout! Learn more

10-Day Weather Forecast

Advertisements
Track Severe Weather on mobile